createdAt,value
2023-03-15T00:02:00.138Z,5.10
2023-03-15T00:04:28.211Z,5.10
2023-03-15T00:06:56.204Z,5.10
2023-03-15T00:09:24.359Z,5.10
2023-03-15T00:11:54.712Z,5.10
2023-03-15T00:14:22.555Z,5.00
2023-03-15T00:16:50.299Z,5.00
2023-03-15T00:19:17.888Z,5.00
2023-03-15T00:21:45.457Z,5.00
2023-03-15T00:24:13.045Z,4.90
2023-03-15T00:26:40.793Z,4.90
2023-03-15T00:29:08.305Z,4.90
2023-03-15T00:31:36.204Z,4.90
2023-03-15T00:34:03.602Z,4.90
2023-03-15T00:36:32.643Z,4.90
2023-03-15T00:39:00.918Z,4.90
2023-03-15T00:41:28.255Z,4.90
2023-03-15T00:43:55.659Z,4.90
2023-03-15T00:46:23.231Z,4.90
2023-03-15T00:48:52.122Z,4.80
2023-03-15T00:51:22.548Z,4.70
2023-03-15T00:53:51.957Z,4.60
2023-03-15T00:56:25.055Z,4.70
2023-03-15T00:58:53.183Z,4.60
2023-03-15T01:01:24.262Z,4.60
2023-03-15T01:03:52.406Z,4.60
2023-03-15T01:06:23.927Z,4.50
2023-03-15T01:08:52.115Z,4.60
2023-03-15T01:11:24.402Z,4.50
2023-03-15T01:13:53.555Z,4.50
2023-03-15T01:16:21.528Z,4.40
2023-03-15T01:18:51.604Z,4.40
2023-03-15T01:21:19.897Z,4.40
2023-03-15T01:23:47.515Z,4.50
2023-03-15T01:26:16.805Z,4.50
2023-03-15T01:28:45.165Z,4.40
2023-03-15T01:31:31.463Z,4.40
2023-03-15T01:34:00.990Z,4.40
2023-03-15T01:36:28.570Z,4.30
2023-03-15T01:38:56.156Z,4.30
2023-03-15T01:41:24.850Z,4.30
2023-03-15T01:43:53.008Z,4.20
2023-03-15T01:46:23.708Z,4.20
2023-03-15T01:49:02.615Z,4.20
2023-03-15T01:51:47.741Z,4.20
2023-03-15T01:54:18.197Z,4.30
2023-03-15T01:56:55.407Z,4.30
2023-03-15T01:59:33.610Z,4.30
2023-03-15T02:02:02.003Z,4.30
2023-03-15T02:04:34.252Z,4.20
2023-03-15T02:07:03.407Z,4.20
2023-03-15T02:09:44.647Z,4.20
2023-03-15T02:12:12.567Z,4.20
2023-03-15T02:14:42.058Z,4.10
2023-03-15T02:17:09.854Z,4.10
2023-03-15T02:20:06.949Z,4.10
2023-03-15T02:22:56.062Z,4.10
2023-03-15T02:25:39.718Z,4.10
2023-03-15T02:28:10.258Z,4.10
2023-03-15T02:30:38.083Z,4.10
2023-03-15T02:33:10.982Z,4.20
2023-03-15T02:35:38.664Z,4.20
2023-03-15T02:38:06.055Z,4.10
2023-03-15T02:40:33.543Z,4.20
2023-03-15T02:43:06.892Z,4.20
2023-03-15T02:45:35.888Z,4.20
2023-03-15T02:48:05.776Z,4.10
2023-03-15T02:50:33.419Z,4.10
2023-03-15T02:53:03.165Z,4.00
2023-03-15T02:55:32.804Z,4.00
2023-03-15T02:58:01.150Z,4.00
2023-03-15T03:00:29.197Z,4.00
2023-03-15T03:02:56.802Z,4.00
2023-03-15T03:05:24.905Z,3.90
2023-03-15T03:07:52.557Z,3.90
2023-03-15T03:10:21.205Z,3.80
2023-03-15T03:12:53.552Z,3.80
2023-03-15T03:15:21.602Z,3.90
2023-03-15T03:17:49.632Z,3.80
2023-03-15T03:20:17.649Z,3.70
2023-03-15T03:22:45.709Z,3.70
2023-03-15T03:25:13.633Z,3.70
2023-03-15T03:27:41.499Z,3.70
2023-03-15T03:30:12.825Z,3.60
2023-03-15T03:32:41.403Z,3.60
2023-03-15T03:35:09.492Z,3.70
2023-03-15T03:37:37.102Z,3.60
2023-03-15T03:40:07.253Z,3.60
2023-03-15T03:42:35.999Z,3.60
2023-03-15T03:45:03.745Z,3.60
2023-03-15T03:47:31.154Z,3.60
2023-03-15T03:49:58.734Z,3.60
2023-03-15T03:52:26.204Z,3.70
2023-03-15T03:54:53.583Z,3.60
2023-03-15T03:57:21.289Z,3.60
2023-03-15T03:59:48.934Z,3.50
2023-03-15T04:02:16.295Z,3.50
2023-03-15T04:04:43.715Z,3.50
2023-03-15T04:07:11.149Z,3.50
2023-03-15T04:09:38.696Z,3.50
2023-03-15T04:12:06.660Z,3.60
2023-03-15T04:14:34.346Z,3.60
2023-03-15T04:17:04.051Z,3.60
2023-03-15T04:19:31.493Z,3.50
2023-03-15T04:21:59.034Z,3.50
2023-03-15T04:24:26.441Z,3.50
2023-03-15T04:26:57.977Z,3.50
2023-03-15T04:29:25.795Z,3.50
2023-03-15T04:31:53.294Z,3.40
2023-03-15T04:34:20.622Z,3.40
2023-03-15T04:36:48.155Z,3.40
2023-03-15T04:39:15.695Z,3.30
2023-03-15T04:41:43.201Z,3.50
2023-03-15T04:44:10.666Z,3.40
2023-03-15T04:46:38.295Z,3.50
2023-03-15T04:49:06.181Z,3.40
2023-03-15T04:51:34.571Z,3.50
2023-03-15T04:54:02.054Z,3.50
2023-03-15T04:56:30.645Z,3.50
2023-03-15T04:58:58.306Z,3.50
2023-03-15T05:01:30.734Z,3.40
2023-03-15T05:03:59.204Z,3.40
2023-03-15T05:06:26.648Z,3.40
2023-03-15T05:08:54.904Z,3.30
2023-03-15T05:11:22.744Z,3.30
2023-03-15T05:13:50.299Z,3.30
2023-03-15T05:16:17.704Z,3.20
2023-03-15T05:18:45.470Z,3.30
2023-03-15T05:21:13.648Z,3.20
2023-03-15T05:23:41.494Z,3.20
2023-03-15T05:26:09.040Z,3.20
2023-03-15T05:28:36.591Z,3.20
2023-03-15T05:31:04.804Z,3.20
2023-03-15T05:33:32.742Z,3.20
2023-03-15T05:36:01.105Z,3.20
2023-03-15T05:38:28.790Z,3.10
2023-03-15T05:40:56.303Z,3.20
2023-03-15T05:43:23.837Z,3.10
2023-03-15T05:45:51.602Z,3.10
2023-03-15T05:48:18.881Z,3.10
2023-03-15T05:50:46.248Z,3.10
2023-03-15T05:53:13.840Z,3.10
2023-03-15T05:55:41.442Z,3.10
2023-03-15T05:58:09.103Z,3.10
2023-03-15T06:00:36.694Z,3.10
2023-03-15T06:03:04.797Z,3.20
2023-03-15T06:05:46.755Z,3.20
2023-03-15T06:08:15.242Z,3.20
2023-03-15T06:10:43.680Z,3.20
2023-03-15T06:13:11.242Z,3.20
2023-03-15T06:15:38.991Z,3.20
2023-03-15T06:18:06.595Z,3.20
2023-03-15T06:20:35.165Z,3.20
2023-03-15T06:23:02.826Z,3.10
2023-03-15T06:25:30.795Z,3.10
2023-03-15T06:27:58.103Z,3.10
2023-03-15T06:30:26.395Z,3.20
2023-03-15T06:32:54.646Z,3.20
2023-03-15T06:35:22.382Z,3.30
2023-03-15T06:37:49.890Z,3.40
2023-03-15T06:40:17.985Z,3.40
2023-03-15T06:42:45.637Z,3.30
2023-03-15T06:45:13.484Z,3.30
2023-03-15T06:47:41.141Z,3.30
2023-03-15T06:50:09.483Z,3.40
2023-03-15T06:52:37.018Z,3.40
2023-03-15T06:55:05.036Z,3.50
2023-03-15T06:57:35.278Z,3.50
2023-03-15T07:00:03.124Z,3.60
2023-03-15T07:02:37.111Z,3.70
2023-03-15T07:05:05.388Z,3.60
2023-03-15T07:07:32.787Z,3.60
2023-03-15T07:10:00.238Z,3.70
2023-03-15T07:12:27.773Z,3.70
2023-03-15T07:14:55.295Z,3.70
2023-03-15T07:17:23.003Z,3.70
2023-03-15T07:19:56.632Z,3.70
2023-03-15T07:22:24.690Z,3.70
2023-03-15T07:24:52.756Z,3.70
2023-03-15T07:27:20.291Z,3.70
2023-03-15T07:29:48.667Z,3.70
2023-03-15T07:32:16.379Z,3.70
2023-03-15T07:34:43.945Z,3.80
2023-03-15T07:37:11.746Z,3.80
2023-03-15T07:39:39.664Z,3.90
2023-03-15T07:42:08.733Z,3.90
2023-03-15T07:44:36.382Z,4.00
2023-03-15T07:47:04.188Z,4.00
2023-03-15T07:49:31.967Z,4.10
2023-03-15T07:51:59.598Z,4.10
2023-03-15T07:54:29.499Z,4.10
2023-03-15T07:56:56.784Z,4.20
2023-03-15T07:59:24.441Z,4.30
2023-03-15T08:01:51.977Z,4.30
2023-03-15T08:04:19.796Z,4.30
2023-03-15T08:06:48.743Z,4.50
2023-03-15T08:09:20.183Z,4.50
2023-03-15T08:11:48.498Z,4.40
2023-03-15T08:14:16.493Z,4.50
2023-03-15T08:16:44.359Z,4.50
2023-03-15T08:19:12.161Z,4.60
2023-03-15T08:21:39.588Z,4.70
2023-03-15T08:24:07.199Z,4.80
2023-03-15T08:26:34.841Z,4.90
2023-03-15T08:29:03.460Z,4.90
2023-03-15T08:31:34.477Z,4.90
2023-03-15T08:34:01.898Z,5.00
2023-03-15T08:36:29.710Z,5.10
2023-03-15T08:39:01.196Z,5.10
2023-03-15T08:41:28.637Z,5.20
2023-03-15T08:43:56.119Z,5.20
2023-03-15T08:46:23.655Z,5.20
2023-03-15T08:48:51.284Z,5.20
2023-03-15T08:51:20.040Z,5.30
2023-03-15T08:53:48.396Z,5.40
2023-03-15T08:56:16.150Z,5.40
2023-03-15T08:58:43.579Z,5.50
2023-03-15T09:01:14.579Z,5.40
2023-03-15T09:03:42.654Z,5.50
2023-03-15T09:06:11.333Z,5.50
2023-03-15T09:08:40.743Z,5.60
2023-03-15T09:11:10.015Z,5.70
2023-03-15T09:13:38.377Z,5.60
2023-03-15T09:16:06.190Z,5.50
2023-03-15T09:18:37.285Z,5.60
2023-03-15T09:21:05.657Z,5.70
2023-03-15T09:23:33.286Z,5.70
2023-03-15T09:26:04.730Z,5.70
2023-03-15T09:28:32.530Z,5.70
2023-03-15T09:31:00.225Z,5.80
2023-03-15T09:33:27.950Z,5.90
2023-03-15T09:35:55.594Z,5.90
2023-03-15T09:38:29.807Z,6.00
2023-03-15T09:41:00.799Z,6.10
2023-03-15T09:43:52.494Z,6.20
2023-03-15T09:46:36.840Z,6.20
2023-03-15T09:49:19.417Z,6.30
2023-03-15T09:51:51.304Z,6.40
2023-03-15T09:54:29.535Z,6.40
2023-03-15T09:57:02.330Z,6.50
2023-03-15T09:59:44.580Z,6.70
2023-03-15T10:02:28.278Z,6.80
2023-03-15T10:05:05.890Z,6.80
2023-03-15T10:07:34.978Z,6.80
2023-03-15T10:10:05.010Z,6.80
2023-03-15T10:12:41.322Z,6.90
2023-03-15T10:15:50.290Z,7.00
2023-03-15T10:18:44.240Z,7.00
2023-03-15T10:21:18.594Z,7.10
2023-03-15T10:23:53.849Z,7.10
2023-03-15T10:26:32.898Z,7.10
2023-03-15T10:29:06.641Z,7.20
2023-03-15T10:31:44.652Z,7.30
2023-03-15T10:34:13.978Z,7.40
2023-03-15T10:36:55.503Z,7.40
2023-03-15T10:39:24.978Z,7.50
2023-03-15T10:41:52.498Z,7.50
2023-03-15T10:44:29.178Z,7.50
2023-03-15T10:47:04.855Z,7.50
2023-03-15T10:49:39.680Z,7.60
2023-03-15T10:52:43.779Z,7.60
2023-03-15T10:55:18.692Z,7.70
2023-03-15T10:57:56.025Z,7.80
2023-03-15T11:00:27.121Z,7.80
2023-03-15T11:03:15.949Z,7.80
2023-03-15T11:05:53.273Z,7.90
2023-03-15T11:08:24.169Z,8.00
2023-03-15T11:11:00.874Z,8.10
2023-03-15T11:13:33.631Z,8.10
2023-03-15T11:16:08.427Z,8.00
2023-03-15T11:18:58.825Z,8.00
2023-03-15T11:21:33.613Z,8.00
2023-03-15T11:24:06.070Z,8.10
2023-03-15T11:26:36.949Z,8.10
2023-03-15T11:29:31.723Z,8.00
2023-03-15T11:32:12.477Z,8.00
2023-03-15T11:35:01.414Z,8.20
2023-03-15T11:37:51.674Z,8.20
2023-03-15T11:40:23.467Z,8.40
2023-03-15T11:43:20.928Z,8.40
2023-03-15T11:45:55.750Z,8.40
2023-03-15T11:48:36.527Z,8.30
2023-03-15T11:51:05.837Z,8.30
2023-03-15T11:53:44.871Z,8.30
2023-03-15T11:56:27.970Z,8.30
2023-03-15T11:59:06.449Z,8.30
2023-03-15T12:01:35.080Z,8.40
2023-03-15T12:04:26.114Z,8.60
2023-03-15T12:06:57.938Z,8.70
2023-03-15T12:09:36.376Z,8.70
2023-03-15T12:12:26.981Z,8.90
2023-03-15T12:15:20.692Z,8.90
2023-03-15T12:17:56.438Z,8.90
2023-03-15T12:20:37.502Z,8.90
2023-03-15T12:23:14.230Z,8.90
2023-03-15T12:25:57.293Z,8.90
2023-03-15T12:29:04.072Z,8.90
2023-03-15T12:31:49.646Z,8.90
2023-03-15T12:34:42.273Z,8.90
2023-03-15T12:37:37.980Z,8.90
2023-03-15T12:40:22.480Z,8.90
2023-03-15T12:42:50.183Z,8.80
2023-03-15T12:45:17.692Z,8.80
2023-03-15T12:47:53.658Z,8.70
2023-03-15T12:50:39.417Z,8.80
2023-03-15T12:53:32.289Z,8.80
2023-03-15T12:56:40.562Z,8.70
2023-03-15T12:59:23.563Z,8.60
2023-03-15T13:01:51.789Z,8.60
2023-03-15T13:04:21.352Z,8.70
2023-03-15T13:07:11.928Z,8.70
2023-03-15T13:10:12.128Z,8.80
2023-03-15T13:13:04.471Z,8.90
2023-03-15T13:15:40.488Z,9.00
2023-03-15T13:18:20.819Z,8.90
2023-03-15T13:21:06.540Z,8.90
2023-03-15T13:23:34.518Z,9.00
2023-03-15T13:26:11.643Z,8.90
2023-03-15T13:28:49.569Z,8.90
2023-03-15T13:31:19.835Z,8.90
2023-03-15T13:33:49.056Z,8.80
2023-03-15T13:36:20.533Z,8.80
2023-03-15T13:38:52.986Z,8.90
2023-03-15T13:41:23.223Z,8.80
2023-03-15T13:43:52.738Z,8.80
2023-03-15T13:46:23.334Z,8.70
2023-03-15T13:48:53.823Z,8.70
2023-03-15T13:51:28.588Z,8.70
2023-03-15T13:54:08.438Z,8.60
2023-03-15T13:56:49.251Z,8.70
2023-03-15T13:59:19.083Z,8.70
2023-03-15T14:01:46.599Z,8.60
2023-03-15T14:04:17.628Z,8.60
2023-03-15T14:06:48.204Z,8.60
2023-03-15T14:09:24.310Z,8.70
2023-03-15T14:12:20.046Z,8.70
2023-03-15T14:14:53.268Z,8.70
2023-03-15T14:17:29.686Z,8.70
2023-03-15T14:20:16.737Z,8.80
2023-03-15T14:22:44.517Z,8.80
2023-03-15T14:25:23.781Z,8.80
2023-03-15T14:27:52.210Z,8.80
2023-03-15T14:30:23.099Z,8.70
2023-03-15T14:32:55.673Z,8.80
2023-03-15T14:35:42.918Z,8.80
2023-03-15T14:38:22.552Z,8.90
2023-03-15T14:40:52.634Z,8.80
2023-03-15T14:43:22.246Z,8.90
2023-03-15T14:45:51.489Z,8.90
2023-03-15T14:48:31.970Z,8.90
2023-03-15T14:51:00.167Z,8.80
2023-03-15T14:53:35.106Z,8.70
2023-03-15T14:56:04.683Z,8.70
2023-03-15T14:58:33.571Z,8.70
2023-03-15T15:01:03.463Z,8.70
2023-03-15T15:03:53.877Z,8.60
2023-03-15T15:06:22.500Z,8.60
2023-03-15T15:08:55.540Z,8.50
2023-03-15T15:11:23.223Z,8.60
2023-03-15T15:13:50.815Z,8.50
2023-03-15T15:16:18.457Z,8.50
2023-03-15T15:18:45.959Z,8.50
2023-03-15T15:21:34.019Z,8.60
2023-03-15T15:24:04.221Z,8.60
2023-03-15T15:26:32.973Z,8.70
2023-03-15T15:29:00.872Z,8.70
2023-03-15T15:31:29.440Z,8.60
2023-03-15T15:33:58.239Z,8.60
2023-03-15T15:36:27.234Z,8.60
2023-03-15T15:38:54.917Z,8.70
2023-03-15T15:41:39.557Z,8.60
2023-03-15T15:44:16.168Z,8.50
2023-03-15T15:46:44.484Z,8.50
2023-03-15T15:49:12.753Z,8.50
2023-03-15T15:51:42.926Z,8.60
2023-03-15T15:54:18.863Z,8.50
2023-03-15T15:56:52.910Z,8.40
2023-03-15T15:59:20.533Z,8.40
2023-03-15T16:02:06.579Z,8.40
2023-03-15T16:04:35.110Z,8.40
2023-03-15T16:07:03.878Z,8.40
2023-03-15T16:09:35.874Z,8.40
2023-03-15T16:12:11.315Z,8.30
2023-03-15T16:14:38.661Z,8.30
2023-03-15T16:17:33.973Z,8.20
2023-03-15T16:20:01.416Z,8.10
2023-03-15T16:22:29.261Z,8.10
2023-03-15T16:25:00.625Z,8.00
2023-03-15T16:27:29.046Z,8.00
2023-03-15T16:29:57.590Z,8.00
2023-03-15T16:32:41.004Z,8.00
2023-03-15T16:35:15.622Z,7.90
2023-03-15T16:37:44.769Z,7.90
2023-03-15T16:40:22.322Z,7.80
2023-03-15T16:42:51.109Z,7.90
2023-03-15T16:45:19.984Z,7.80
2023-03-15T16:47:48.562Z,7.80
2023-03-15T16:50:16.810Z,7.80
2023-03-15T16:52:47.068Z,7.60
2023-03-15T16:55:18.009Z,7.60
2023-03-15T16:57:45.664Z,7.60
2023-03-15T17:00:18.679Z,7.60
2023-03-15T17:02:48.518Z,7.60
2023-03-15T17:05:18.996Z,7.60
2023-03-15T17:07:47.416Z,7.60
2023-03-15T17:10:27.351Z,7.60
2023-03-15T17:12:56.257Z,7.50
2023-03-15T17:15:26.323Z,7.50
2023-03-15T17:17:57.319Z,7.50
2023-03-15T17:20:29.021Z,7.50
2023-03-15T17:23:04.789Z,7.50
2023-03-15T17:25:34.307Z,7.50
2023-03-15T17:28:01.810Z,7.50
2023-03-15T17:30:34.620Z,7.50
2023-03-15T17:33:02.817Z,7.50
2023-03-15T17:35:40.918Z,7.60
2023-03-15T17:38:16.718Z,7.60
2023-03-15T17:40:44.794Z,7.50
2023-03-15T17:43:14.175Z,7.50
2023-03-15T17:45:42.310Z,7.50
2023-03-15T17:48:09.861Z,7.50
2023-03-15T17:50:38.408Z,7.60
2023-03-15T17:53:14.599Z,7.60
2023-03-15T17:55:42.188Z,7.50
2023-03-15T17:58:12.554Z,7.60
2023-03-15T18:00:40.321Z,7.60
2023-03-15T18:03:09.107Z,7.50
2023-03-15T18:05:36.441Z,7.50
2023-03-15T18:08:06.558Z,7.50
2023-03-15T18:10:37.048Z,7.50
2023-03-15T18:13:05.161Z,7.50
2023-03-15T18:15:33.989Z,7.50
2023-03-15T18:18:01.262Z,7.50
2023-03-15T18:20:28.786Z,7.50
2023-03-15T18:22:56.438Z,7.50
2023-03-15T18:25:27.211Z,7.50
2023-03-15T18:27:54.910Z,7.50
2023-03-15T18:30:24.507Z,7.50
2023-03-15T18:32:53.760Z,7.50
2023-03-15T18:35:33.597Z,7.50
2023-03-15T18:38:01.159Z,7.50
2023-03-15T18:40:30.513Z,7.50
2023-03-15T18:42:58.814Z,7.50
2023-03-15T18:45:35.002Z,7.50
2023-03-15T18:48:02.709Z,7.50
2023-03-15T18:50:30.951Z,7.50
2023-03-15T18:52:58.462Z,7.50
2023-03-15T18:55:26.796Z,7.60
2023-03-15T18:57:55.261Z,7.50
2023-03-15T19:00:28.355Z,7.50
2023-03-15T19:02:59.125Z,7.50
2023-03-15T19:05:28.352Z,7.60
2023-03-15T19:07:55.954Z,7.50
2023-03-15T19:10:24.721Z,7.60
2023-03-15T19:12:53.223Z,7.50
2023-03-15T19:15:22.448Z,7.50
2023-03-15T19:17:52.708Z,7.50
2023-03-15T19:20:21.701Z,7.50
2023-03-15T19:22:51.485Z,7.50
2023-03-15T19:25:21.028Z,7.50
2023-03-15T19:27:49.202Z,7.50
2023-03-15T19:30:21.022Z,7.50
2023-03-15T19:32:50.094Z,7.60
2023-03-15T19:35:19.706Z,7.50
2023-03-15T19:37:48.251Z,7.60
2023-03-15T19:40:18.484Z,7.60
2023-03-15T19:42:47.022Z,7.60
2023-03-15T19:45:15.210Z,7.70
2023-03-15T19:47:43.552Z,7.70
2023-03-15T19:50:13.312Z,7.70
2023-03-15T19:52:46.088Z,7.90
2023-03-15T19:55:15.450Z,7.80
2023-03-15T19:57:43.863Z,7.80
2023-03-15T20:00:16.466Z,7.80
2023-03-15T20:02:45.092Z,7.80
2023-03-15T20:05:15.818Z,7.70
2023-03-15T20:07:43.885Z,7.70
2023-03-15T20:10:12.564Z,7.60
2023-03-15T20:12:42.445Z,7.50
2023-03-15T20:15:15.499Z,7.50
2023-03-15T20:17:43.401Z,7.50
2023-03-15T20:20:13.733Z,7.50
2023-03-15T20:22:44.311Z,7.50
2023-03-15T20:25:13.767Z,7.50
2023-03-15T20:27:41.957Z,7.60
2023-03-15T20:30:12.508Z,7.60
2023-03-15T20:32:40.158Z,7.60
2023-03-15T20:35:09.810Z,7.60
2023-03-15T20:37:40.654Z,7.70
2023-03-15T20:40:09.758Z,7.60
2023-03-15T20:42:37.717Z,7.60
2023-03-15T20:45:07.398Z,7.60
2023-03-15T20:47:35.430Z,7.70
2023-03-15T20:50:04.806Z,7.70
2023-03-15T20:52:32.940Z,7.60
2023-03-15T20:55:01.056Z,7.70
2023-03-15T20:57:28.812Z,7.70
2023-03-15T20:59:56.894Z,7.70
2023-03-15T21:02:25.068Z,7.70
2023-03-15T21:04:52.441Z,7.60
2023-03-15T21:07:19.949Z,7.60
2023-03-15T21:09:47.446Z,7.60
2023-03-15T21:12:15.012Z,7.60
2023-03-15T21:14:42.676Z,7.60
2023-03-15T21:17:10.317Z,7.60
2023-03-15T21:19:38.642Z,7.60
2023-03-15T21:22:06.237Z,7.60
2023-03-15T21:24:40.721Z,7.60
2023-03-15T21:27:14.065Z,7.60
2023-03-15T21:29:41.594Z,7.60
2023-03-15T21:32:10.314Z,7.60
2023-03-15T21:34:38.336Z,7.60
2023-03-15T21:37:05.700Z,7.70
2023-03-15T21:39:33.430Z,7.60
2023-03-15T21:42:00.990Z,7.70
2023-03-15T21:44:28.390Z,7.60
2023-03-15T21:46:57.834Z,7.60
2023-03-15T21:49:25.530Z,7.60
2023-03-15T21:51:53.187Z,7.60
2023-03-15T21:54:20.730Z,7.60
2023-03-15T21:56:48.317Z,7.60
2023-03-15T21:59:15.634Z,7.60
2023-03-15T22:01:43.232Z,7.60
2023-03-15T22:04:10.731Z,7.60
2023-03-15T22:06:38.438Z,7.60
2023-03-15T22:09:06.198Z,7.60
2023-03-15T22:11:33.639Z,7.60
2023-03-15T22:14:01.031Z,7.60
2023-03-15T22:16:28.635Z,7.50
2023-03-15T22:18:56.242Z,7.60
2023-03-15T22:21:23.725Z,7.60
2023-03-15T22:23:51.447Z,7.60
2023-03-15T22:26:19.135Z,7.60
2023-03-15T22:28:46.485Z,7.50
2023-03-15T22:31:14.217Z,7.50
2023-03-15T22:33:42.351Z,7.50
2023-03-15T22:36:10.382Z,7.50
2023-03-15T22:38:37.884Z,7.50
2023-03-15T22:41:08.450Z,7.50
2023-03-15T22:43:37.104Z,7.50
2023-03-15T22:46:05.022Z,7.50
2023-03-15T22:48:33.287Z,7.50
2023-03-15T22:51:04.339Z,7.50
2023-03-15T22:53:32.045Z,7.50
2023-03-15T22:55:59.605Z,7.50
2023-03-15T22:58:27.502Z,7.40
2023-03-15T23:00:58.242Z,7.40
2023-03-15T23:03:26.542Z,7.40
2023-03-15T23:05:55.085Z,7.40
2023-03-15T23:08:23.026Z,7.40
2023-03-15T23:10:51.106Z,7.40
2023-03-15T23:13:18.817Z,7.40
2023-03-15T23:15:46.560Z,7.40
2023-03-15T23:18:14.740Z,7.40
2023-03-15T23:20:42.843Z,7.40
2023-03-15T23:23:10.292Z,7.40
2023-03-15T23:25:39.411Z,7.40
2023-03-15T23:28:07.893Z,7.50
2023-03-15T23:30:36.366Z,7.50
2023-03-15T23:33:04.274Z,7.50
2023-03-15T23:35:31.900Z,7.50
2023-03-15T23:37:59.432Z,7.50
2023-03-15T23:40:27.387Z,7.50
2023-03-15T23:42:59.222Z,7.50
2023-03-15T23:45:29.946Z,7.50
2023-03-15T23:47:58.047Z,7.50
2023-03-15T23:50:26.708Z,7.50
2023-03-15T23:52:55.885Z,7.60
2023-03-15T23:55:24.494Z,7.60
2023-03-15T23:57:52.159Z,7.60
